Time;durP1;ratioP1;P1;durP2;ratioP2;P2;SDS_P1;SDS_P2;PMS_P1;PMS_P2;Temp;Humidity;BMP_temperature;BMP_pressure;BME280_temperature;BME280_humidity;BME280_pressure;Samples;Min_cycle;Max_cycle;Signal;HPM_P1;HPM_P2
2022/08/09 00:00:23;;;;;;;6.68;3.00;;;18.60;37.20;;;;;;5052789;28;20377;-75
2022/08/09 00:02:49;;;;;;;7.10;3.07;;;18.60;37.20;;;;;;5052958;28;20750;-75
2022/08/09 00:05:15;;;;;;;4.40;2.60;;;18.60;37.40;;;;;;5053607;28;20393;-76
2022/08/09 00:07:42;;;;;;;5.07;3.08;;;18.60;37.50;;;;;;5055044;28;20472;-76
2022/08/09 00:10:08;;;;;;;6.97;3.03;;;18.50;37.80;;;;;;5056688;28;20392;-75
2022/08/09 00:12:34;;;;;;;4.47;3.00;;;18.50;37.80;;;;;;5056168;28;20794;-75
2022/08/09 00:14:59;;;;;;;8.70;3.15;;;18.50;37.90;;;;;;5056479;28;20386;-75
2022/08/09 00:17:25;;;;;;;5.13;2.88;;;18.40;38.20;;;;;;5054877;28;20930;-75
2022/08/09 00:19:50;;;;;;;7.33;3.00;;;18.40;38.80;;;;;;5037405;28;20386;-75
2022/08/09 00:22:16;;;;;;;6.37;3.00;;;18.30;39.00;;;;;;5076293;28;20427;-74
2022/08/09 00:24:41;;;;;;;5.10;3.55;;;18.30;39.50;;;;;;5076112;28;20389;-74
2022/08/09 00:27:07;;;;;;;5.80;3.20;;;18.30;39.40;;;;;;5069273;28;20405;-74
2022/08/09 00:29:32;;;;;;;3.90;2.70;;;18.30;39.40;;;;;;5056888;28;20389;-74
2022/08/09 00:31:58;;;;;;;5.35;3.20;;;18.30;39.50;;;;;;5054811;28;20405;-74
2022/08/09 00:34:24;;;;;;;5.43;2.90;;;18.30;39.60;;;;;;5057474;28;20464;-76
2022/08/09 00:36:49;;;;;;;4.50;3.30;;;18.30;39.70;;;;;;5057702;28;20377;-75
2022/08/09 00:39:16;;;;;;;11.07;3.58;;;18.20;40.40;;;;;;5057015;28;20384;-76
2022/08/09 00:41:42;;;;;;;9.30;3.10;;;18.20;40.40;;;;;;5056904;28;20386;-76
2022/08/09 00:44:08;;;;;;;8.00;3.30;;;18.10;40.90;;;;;;5057403;28;20941;-75
2022/08/09 00:46:33;;;;;;;7.55;3.38;;;18.20;40.80;;;;;;5056563;28;20468;-76
2022/08/09 00:48:59;;;;;;;6.10;3.20;;;18.10;41.60;;;;;;5057091;28;20735;-76
2022/08/09 00:51:25;;;;;;;7.07;3.77;;;18.10;41.40;;;;;;5057437;28;20385;-76
2022/08/09 00:53:50;;;;;;;7.20;3.60;;;18.10;41.30;;;;;;5057171;28;20624;-76
2022/08/09 00:56:16;;;;;;;12.13;4.00;;;18.10;41.30;;;;;;5054716;28;20388;-75
2022/08/09 00:58:42;;;;;;;9.43;3.80;;;18.20;41.30;;;;;;5053102;28;20855;-76
2022/08/09 01:01:23;;;;;;;8.15;3.70;;;18.10;41.30;;;;;;5053759;28;20373;-75
2022/08/09 01:03:57;;;;;;;8.90;3.70;;;18.10;41.70;;;;;;5059018;28;20959;-75
2022/08/09 01:06:43;;;;;;;8.13;3.40;;;18.10;41.80;;;;;;5056459;28;20429;-75
2022/08/09 01:09:44;;;;;;;7.05;3.25;;;18.00;42.10;;;;;;5056122;28;20458;-75
2022/08/09 01:12:32;;;;;;;6.88;3.30;;;18.00;42.20;;;;;;5054920;28;20419;-75
2022/08/09 01:15:06;;;;;;;7.88;3.50;;;18.00;42.30;;;;;;5052697;28;20387;-75
2022/08/09 01:17:40;;;;;;;10.80;3.60;;;18.00;42.40;;;;;;5050744;28;20797;-75
2022/08/09 01:20:06;;;;;;;6.50;3.28;;;18.00;42.60;;;;;;5051664;28;20389;-76
2022/08/09 01:23:11;;;;;;;5.82;3.45;;;18.00;42.80;;;;;;5052597;28;20393;-75
2022/08/09 01:26:07;;;;;;;8.05;3.10;;;18.00;42.90;;;;;;5052079;28;20389;-76
2022/08/09 01:28:36;;;;;;;5.88;3.90;;;17.90;43.30;;;;;;5052532;28;20387;-75
2022/08/09 01:31:05;;;;;;;7.70;3.25;;;18.00;43.30;;;;;;5052449;28;20386;-76
2022/08/09 01:33:37;;;;;;;7.95;3.55;;;18.00;43.30;;;;;;5051329;28;20766;-77
2022/08/09 01:36:10;;;;;;;8.82;3.70;;;17.90;43.60;;;;;;5052192;28;20438;-75
2022/08/09 01:38:38;;;;;;;6.57;3.70;;;17.90;44.10;;;;;;5052094;28;20396;-75
2022/08/09 01:41:10;;;;;;;4.65;3.50;;;17.90;43.90;;;;;;5052639;28;20393;-75
2022/08/09 01:43:38;;;;;;;6.20;3.40;;;17.90;44.10;;;;;;5051682;28;20389;-76
2022/08/09 01:46:05;;;;;;;8.55;3.90;;;17.80;44.30;;;;;;5051483;28;20808;-76
2022/08/09 01:48:32;;;;;;;4.85;3.20;;;17.80;44.50;;;;;;5050244;28;20791;-76
2022/08/09 01:50:58;;;;;;;8.90;3.80;;;17.80;44.40;;;;;;5049963;28;20424;-76
2022/08/09 01:53:25;;;;;;;5.30;3.20;;;17.80;44.60;;;;;;5052737;28;20406;-76
2022/08/09 01:55:52;;;;;;;7.43;3.28;;;17.80;44.70;;;;;;5052574;28;20421;-76
2022/08/09 01:58:19;;;;;;;9.75;3.97;;;17.80;44.70;;;;;;5064218;28;20380;-75
2022/08/09 02:00:46;;;;;;;7.10;3.70;;;17.80;45.00;;;;;;5071728;28;20393;-75
2022/08/09 02:03:14;;;;;;;6.50;3.30;;;17.70;45.30;;;;;;5078046;28;20397;-76
2022/08/09 02:05:43;;;;;;;7.55;3.83;;;17.70;45.70;;;;;;5083716;23;20435;-76
2022/08/09 02:08:12;;;;;;;5.57;3.80;;;17.70;46.20;;;;;;5055666;28;20777;-76
2022/08/09 02:10:42;;;;;;;4.68;3.53;;;17.70;47.20;;;;;;5056492;28;20866;-76
2022/08/09 02:13:11;;;;;;;6.57;3.58;;;17.60;46.50;;;;;;5057686;28;20427;-78
2022/08/09 02:15:40;;;;;;;4.55;3.70;;;17.70;46.60;;;;;;5057279;28;20422;-77
2022/08/09 02:18:07;;;;;;;6.85;4.13;;;17.60;46.90;;;;;;5055301;28;20385;-76
2022/08/09 02:20:38;;;;;;;5.07;3.50;;;17.60;47.40;;;;;;5054321;28;20388;-76
2022/08/09 02:23:06;;;;;;;5.18;3.55;;;17.60;47.70;;;;;;5054162;28;20796;-76
2022/08/09 02:25:35;;;;;;;8.13;3.70;;;17.50;48.40;;;;;;5054375;28;20414;-76
2022/08/09 02:28:07;;;;;;;7.38;3.50;;;17.50;48.80;;;;;;5054250;28;20373;-77
2022/08/09 02:30:43;;;;;;;7.18;3.80;;;17.50;48.60;;;;;;5055010;28;20380;-77
2022/08/09 02:33:17;;;;;;;6.28;3.20;;;17.50;48.60;;;;;;5054163;28;20412;-77
2022/08/09 02:35:45;;;;;;;8.77;4.10;;;17.50;49.20;;;;;;5053736;28;20401;-77
2022/08/09 02:38:12;;;;;;;7.88;3.38;;;17.40;49.40;;;;;;5053739;28;20385;-76
2022/08/09 02:40:40;;;;;;;8.18;4.03;;;17.40;49.50;;;;;;5053693;28;20439;-77
2022/08/09 02:43:09;;;;;;;7.63;3.37;;;17.40;49.80;;;;;;5053585;28;20925;-77
2022/08/09 02:45:40;;;;;;;7.50;3.70;;;17.30;50.50;;;;;;5053302;28;20484;-76
2022/08/09 02:48:10;;;;;;;6.95;3.92;;;17.30;51.50;;;;;;5053225;28;20386;-77
2022/08/09 02:50:40;;;;;;;8.38;3.83;;;17.30;50.40;;;;;;5051685;28;20398;-77
2022/08/09 02:53:19;;;;;;;10.80;4.18;;;17.40;50.20;;;;;;5053626;28;20907;-76
2022/08/09 02:55:47;;;;;;;7.70;3.90;;;17.30;50.60;;;;;;5053410;28;20491;-76
2022/08/09 02:58:15;;;;;;;6.80;3.90;;;17.30;50.70;;;;;;5053380;28;20381;-76
2022/08/09 03:00:43;;;;;;;6.50;3.60;;;17.30;51.00;;;;;;5051646;28;20389;-77
2022/08/09 03:03:10;;;;;;;5.43;3.55;;;17.20;51.50;;;;;;5052972;28;20396;-77
2022/08/09 03:05:38;;;;;;;8.23;3.70;;;17.30;51.80;;;;;;5052686;28;20405;-76
2022/08/09 03:08:04;;;;;;;7.97;4.00;;;17.30;51.60;;;;;;5052323;28;20396;-75
2022/08/09 03:10:31;;;;;;;4.22;3.42;;;17.20;51.60;;;;;;5052881;28;20472;-76
2022/08/09 03:12:59;;;;;;;9.20;4.10;;;17.20;51.90;;;;;;5052864;28;20398;-75
2022/08/09 03:15:25;;;;;;;7.82;4.05;;;17.20;51.90;;;;;;5068208;28;20424;-76
2022/08/09 03:17:52;;;;;;;6.85;3.80;;;17.20;52.00;;;;;;5053550;28;20385;-75
2022/08/09 03:20:19;;;;;;;12.48;3.70;;;17.20;52.20;;;;;;5052585;28;20388;-75
2022/08/09 03:22:46;;;;;;;7.90;3.90;;;17.20;52.80;;;;;;5051914;28;20400;-75
2022/08/09 03:25:13;;;;;;;7.20;3.95;;;17.10;53.20;;;;;;5052198;28;20420;-75
2022/08/09 03:27:41;;;;;;;7.00;3.97;;;17.20;53.00;;;;;;5052166;28;20385;-75
2022/08/09 03:30:07;;;;;;;7.32;4.38;;;17.10;52.80;;;;;;5051134;28;20470;-75
2022/08/09 03:32:34;;;;;;;8.18;4.22;;;17.10;52.90;;;;;;5052084;28;20886;-76
2022/08/09 03:35:00;;;;;;;6.38;4.20;;;17.10;53.00;;;;;;5052342;28;20385;-76
2022/08/09 03:37:27;;;;;;;5.85;4.07;;;17.10;53.60;;;;;;5052718;28;20913;-77
2022/08/09 03:39:53;;;;;;;7.28;4.00;;;17.10;53.30;;;;;;5052765;28;20464;-76
2022/08/09 03:42:18;;;;;;;7.73;3.90;;;17.10;53.70;;;;;;5052909;28;20475;-76
2022/08/09 03:44:44;;;;;;;5.23;4.03;;;17.10;53.70;;;;;;5061045;28;20443;-76
2022/08/09 03:47:10;;;;;;;6.43;4.20;;;17.10;54.10;;;;;;5066713;28;20409;-75
2022/08/09 03:49:37;;;;;;;5.55;4.20;;;17.00;54.30;;;;;;5067104;28;20377;-75
2022/08/09 03:52:04;;;;;;;9.70;4.20;;;17.00;54.70;;;;;;5063449;28;20401;-76
2022/08/09 03:54:32;;;;;;;9.50;4.32;;;17.00;55.10;;;;;;5051872;28;20385;-76
2022/08/09 03:57:03;;;;;;;5.57;3.90;;;17.00;56.30;;;;;;5051528;28;20464;-76
2022/08/09 03:59:29;;;;;;;8.60;4.18;;;17.00;55.20;;;;;;5051944;28;20381;-76
2022/08/09 04:01:58;;;;;;;8.25;4.70;;;17.00;56.20;;;;;;5053354;28;20463;-77
2022/08/09 04:04:25;;;;;;;6.47;4.00;;;16.90;55.80;;;;;;5052173;28;20870;-77
2022/08/09 04:06:51;;;;;;;9.25;4.50;;;16.90;56.10;;;;;;5053333;28;20408;-76
2022/08/09 04:09:17;;;;;;;7.72;4.40;;;16.90;56.50;;;;;;5054067;28;20472;-77
2022/08/09 04:12:07;;;;;;;7.88;4.30;;;16.90;56.90;;;;;;5051446;28;20757;-76
2022/08/09 04:14:33;;;;;;;11.50;5.60;;;16.80;57.20;;;;;;5051185;28;20477;-77
2022/08/09 04:16:58;;;;;;;9.13;4.47;;;16.90;57.30;;;;;;5050924;28;20468;-77
2022/08/09 04:19:24;;;;;;;12.05;4.35;;;16.80;57.30;;;;;;5050592;28;20416;-76
2022/08/09 04:21:49;;;;;;;10.23;5.22;;;16.80;57.70;;;;;;5050388;28;20965;-77
2022/08/09 04:24:15;;;;;;;15.17;6.17;;;16.80;58.30;;;;;;5050828;28;20389;-77
2022/08/09 04:26:40;;;;;;;8.67;4.80;;;16.70;58.50;;;;;;5050852;28;20904;-76
2022/08/09 04:29:06;;;;;;;8.27;5.00;;;16.80;58.40;;;;;;5050643;28;20445;-76
2022/08/09 04:31:32;;;;;;;7.05;4.47;;;16.80;58.70;;;;;;5050643;28;20400;-76
2022/08/09 04:33:57;;;;;;;10.18;4.78;;;16.80;58.50;;;;;;5050511;28;20443;-76
2022/08/09 04:36:25;;;;;;;6.20;4.50;;;16.80;58.00;;;;;;5045656;28;20387;-76
2022/08/09 04:38:52;;;;;;;8.40;4.50;;;16.80;58.20;;;;;;5041287;28;20404;-76
2022/08/09 04:41:17;;;;;;;6.25;4.35;;;16.80;58.70;;;;;;5039099;28;20877;-77
2022/08/09 04:43:43;;;;;;;6.10;4.70;;;16.80;58.90;;;;;;5048597;28;20419;-77
2022/08/09 04:46:10;;;;;;;18.10;5.40;;;16.80;58.80;;;;;;5048751;28;20424;-77
2022/08/09 04:48:35;;;;;;;9.45;4.68;;;16.90;58.60;;;;;;5048825;28;20389;-77
2022/08/09 04:51:01;;;;;;;9.27;4.95;;;17.00;57.00;;;;;;5045608;28;20418;-77
2022/08/09 04:53:27;;;;;;;9.20;4.45;;;17.00;56.60;;;;;;5043972;28;20409;-77
2022/08/09 04:55:53;;;;;;;7.60;4.87;;;17.10;56.60;;;;;;5049179;28;20389;-77
2022/08/09 04:58:18;;;;;;;7.95;4.40;;;17.00;56.80;;;;;;5051266;28;20513;-77
2022/08/09 05:00:44;;;;;;;6.50;4.83;;;17.10;56.50;;;;;;5030054;28;20423;-76
2022/08/09 05:03:09;;;;;;;8.30;4.50;;;17.10;56.20;;;;;;5039878;28;20411;-76
2022/08/09 05:05:35;;;;;;;8.83;5.00;;;17.20;55.90;;;;;;5046419;28;20435;-77
2022/08/09 05:08:01;;;;;;;11.35;5.40;;;17.20;56.10;;;;;;5034456;28;20406;-78
2022/08/09 05:10:26;;;;;;;7.50;4.70;;;17.20;55.90;;;;;;5029092;28;20387;-77
2022/08/09 05:12:52;;;;;;;13.43;5.80;;;17.30;55.60;;;;;;5037952;28;20409;-77
2022/08/09 05:15:18;;;;;;;9.43;5.30;;;17.30;56.40;;;;;;5049028;28;20468;-76
2022/08/09 05:17:43;;;;;;;10.60;4.90;;;17.30;56.10;;;;;;5048923;28;20382;-77
2022/08/09 05:20:09;;;;;;;9.73;5.07;;;17.30;56.30;;;;;;5048580;28;20389;-77
2022/08/09 05:22:35;;;;;;;11.00;5.15;;;17.40;55.80;;;;;;5048362;28;20745;-77
2022/08/09 05:25:02;;;;;;;10.13;4.40;;;17.40;56.20;;;;;;5045273;28;20403;-77
2022/08/09 05:27:28;;;;;;;8.75;4.60;;;17.30;56.00;;;;;;5027557;28;20971;-77
2022/08/09 05:29:54;;;;;;;12.30;5.00;;;17.30;56.20;;;;;;5035934;28;20483;-77
2022/08/09 05:32:19;;;;;;;12.20;5.37;;;17.30;55.80;;;;;;5064857;28;20414;-78
2022/08/09 05:34:45;;;;;;;10.23;5.97;;;17.40;55.30;;;;;;5057338;28;20408;-79
2022/08/09 05:37:10;;;;;;;13.35;6.20;;;17.40;54.50;;;;;;5044614;28;20878;-77
2022/08/09 05:39:38;;;;;;;16.30;6.17;;;17.50;54.60;;;;;;5052490;28;20743;-78
2022/08/09 05:42:04;;;;;;;10.93;5.90;;;17.40;54.40;;;;;;5052688;28;20397;-79
2022/08/09 05:44:29;;;;;;;11.50;5.80;;;17.50;54.90;;;;;;5053014;28;20404;-78
2022/08/09 05:46:55;;;;;;;10.60;5.75;;;17.50;55.00;;;;;;5050846;28;20395;-78
2022/08/09 05:49:21;;;;;;;9.57;5.30;;;17.50;54.50;;;;;;5052521;28;20448;-78
2022/08/09 05:51:46;;;;;;;11.00;5.55;;;17.60;53.20;;;;;;5051695;28;20417;-77
2022/08/09 05:54:12;;;;;;;12.80;5.90;;;17.70;52.90;;;;;;5052770;28;20381;-77
2022/08/09 05:56:37;;;;;;;9.47;5.77;;;17.70;52.80;;;;;;5052105;28;20544;-78
2022/08/09 05:59:03;;;;;;;11.77;5.63;;;17.80;52.30;;;;;;5051198;28;20431;-78
2022/08/09 06:01:29;;;;;;;11.50;5.67;;;17.80;51.90;;;;;;5054487;28;20381;-79
2022/08/09 06:03:55;;;;;;;8.67;5.50;;;17.80;52.10;;;;;;5052964;28;20765;-78
2022/08/09 06:06:21;;;;;;;9.93;5.57;;;18.00;51.50;;;;;;5047722;28;20838;-78
2022/08/09 06:08:47;;;;;;;11.52;6.13;;;18.00;50.80;;;;;;5030453;28;20401;-78
2022/08/09 06:11:13;;;;;;;7.93;5.20;;;18.10;50.20;;;;;;5036419;28;20488;-77
2022/08/09 06:13:39;;;;;;;9.20;5.10;;;18.20;49.70;;;;;;5052979;28;20413;-78
2022/08/09 06:16:04;;;;;;;9.63;5.30;;;18.20;48.40;;;;;;5035704;28;20402;-76
2022/08/09 06:18:31;;;;;;;8.00;4.80;;;18.30;48.60;;;;;;5033236;28;20421;-78
2022/08/09 06:20:57;;;;;;;11.63;5.05;;;18.30;49.30;;;;;;5050611;28;20394;-78
2022/08/09 06:23:28;;;;;;;10.88;5.35;;;18.50;48.00;;;;;;5056136;28;21233;-78
2022/08/09 06:25:54;;;;;;;8.45;5.57;;;18.60;46.50;;;;;;5055665;28;20385;-77
2022/08/09 06:28:20;;;;;;;10.00;5.53;;;18.60;45.80;;;;;;5039544;28;20421;-78
2022/08/09 06:30:45;;;;;;;9.93;5.40;;;18.60;46.00;;;;;;5038121;28;20532;-77
2022/08/09 06:33:11;;;;;;;8.90;5.30;;;18.70;46.10;;;;;;5037366;28;20410;-78
2022/08/09 06:35:37;;;;;;;11.20;5.60;;;18.70;45.30;;;;;;5033341;28;20394;-78
2022/08/09 06:38:02;;;;;;;8.93;5.00;;;18.80;45.30;;;;;;5032153;28;20387;-78
2022/08/09 06:40:28;;;;;;;8.17;5.47;;;18.90;44.30;;;;;;5037773;28;20399;-79
2022/08/09 06:42:54;;;;;;;14.03;5.30;;;19.00;43.70;;;;;;5037037;28;20488;-78
2022/08/09 06:45:20;;;;;;;11.00;5.50;;;19.00;43.50;;;;;;5066243;28;21017;-78
2022/08/09 06:47:47;;;;;;;15.23;5.10;;;19.00;43.50;;;;;;5050424;28;20516;-76
2022/08/09 06:50:13;;;;;;;8.80;4.97;;;19.10;43.00;;;;;;5058499;28;20460;-78
2022/08/09 06:52:44;;;;;;;7.37;5.60;;;19.20;42.00;;;;;;5047740;28;20416;-78
2022/08/09 06:55:10;;;;;;;7.43;4.75;;;19.30;41.60;;;;;;5055391;28;20394;-78
2022/08/09 06:57:36;;;;;;;8.32;5.00;;;19.30;41.60;;;;;;5054340;28;20407;-78
2022/08/09 07:00:03;;;;;;;10.95;5.18;;;19.50;41.20;;;;;;5071129;28;20396;-79
2022/08/09 07:02:28;;;;;;;8.10;4.30;;;19.70;39.80;;;;;;5074550;28;20399;-78
2022/08/09 07:04:54;;;;;;;11.83;5.77;;;19.70;38.50;;;;;;5077148;28;20383;-78
2022/08/09 07:07:19;;;;;;;9.30;5.20;;;19.70;38.50;;;;;;5063371;28;20846;-78
2022/08/09 07:09:45;;;;;;;10.27;5.40;;;19.80;38.30;;;;;;5054395;28;20400;-78
2022/08/09 07:12:11;;;;;;;13.57;5.30;;;19.90;37.70;;;;;;5071259;28;20903;-78
2022/08/09 07:14:36;;;;;;;8.90;4.93;;;20.00;36.90;;;;;;5064924;28;20870;-78
2022/08/09 07:17:02;;;;;;;11.20;5.28;;;20.00;36.50;;;;;;5054943;28;20404;-78
2022/08/09 07:19:28;;;;;;;10.90;4.97;;;20.10;36.20;;;;;;5054878;28;20393;-79
2022/08/09 07:21:53;;;;;;;8.07;4.60;;;20.20;36.60;;;;;;5053588;28;20392;-78
2022/08/09 07:24:19;;;;;;;7.40;4.30;;;20.30;35.90;;;;;;5052949;28;20493;-78
2022/08/09 07:26:45;;;;;;;8.10;4.87;;;20.40;35.00;;;;;;5052646;28;20585;-77
2022/08/09 07:29:10;;;;;;;7.13;4.97;;;20.50;34.00;;;;;;5056397;28;20389;-77
2022/08/09 07:31:36;;;;;;;8.20;4.40;;;20.50;34.70;;;;;;5040805;28;20461;-78
2022/08/09 07:34:01;;;;;;;9.75;5.55;;;20.60;33.80;;;;;;5032769;28;20405;-78
2022/08/09 07:36:29;;;;;;;13.70;5.53;;;20.70;33.40;;;;;;5044176;28;20401;-78
2022/08/09 07:38:56;;;;;;;8.07;4.40;;;20.80;32.70;;;;;;5031222;28;20387;-78
2022/08/09 07:41:22;;;;;;;12.82;4.93;;;21.00;31.50;;;;;;5045864;28;20393;-76
2022/08/09 07:43:47;;;;;;;11.03;4.80;;;21.10;31.60;;;;;;5070923;28;20689;-78
2022/08/09 07:46:13;;;;;;;11.57;4.50;;;21.20;32.00;;;;;;5062302;28;20763;-78
2022/08/09 07:48:39;;;;;;;10.07;4.80;;;21.30;31.00;;;;;;5052885;28;20825;-77
2022/08/09 07:51:04;;;;;;;11.33;5.00;;;21.30;30.60;;;;;;5045726;28;20407;-77
2022/08/09 07:53:30;;;;;;;10.90;5.03;;;21.30;30.20;;;;;;5059031;28;20412;-77
2022/08/09 07:55:55;;;;;;;11.30;4.67;;;21.30;30.80;;;;;;5062817;28;20766;-77
2022/08/09 07:58:22;;;;;;;12.97;4.53;;;21.30;31.10;;;;;;5044120;28;20399;-77
2022/08/09 08:00:48;;;;;;;7.05;4.60;;;21.30;30.70;;;;;;5045857;28;20437;-77
2022/08/09 08:03:14;;;;;;;6.00;4.28;;;21.40;29.80;;;;;;5053113;28;20437;-79
2022/08/09 08:05:39;;;;;;;8.00;4.40;;;21.40;30.10;;;;;;5054789;28;20447;-80
2022/08/09 08:08:06;;;;;;;11.20;4.40;;;21.40;30.20;;;;;;5052642;28;20455;-75
2022/08/09 08:10:32;;;;;;;9.70;4.47;;;21.60;30.20;;;;;;5050145;28;20409;-75
2022/08/09 08:12:58;;;;;;;9.10;4.20;;;21.60;29.60;;;;;;5051010;28;20421;-75
2022/08/09 08:15:23;;;;;;;10.50;4.25;;;21.70;28.80;;;;;;5054942;28;20459;-76
2022/08/09 08:17:50;;;;;;;7.00;4.33;;;21.70;28.60;;;;;;5055928;28;20397;-75
2022/08/09 08:20:17;;;;;;;9.25;4.60;;;21.90;28.30;;;;;;5058665;28;20957;-75
2022/08/09 08:22:43;;;;;;;11.13;4.93;;;22.00;27.80;;;;;;5039949;28;20915;-76
2022/08/09 08:25:09;;;;;;;5.97;4.50;;;22.10;27.50;;;;;;5035325;28;20402;-75
2022/08/09 08:27:35;;;;;;;5.63;4.10;;;22.20;26.80;;;;;;5033930;28;20468;-75
2022/08/09 08:30:01;;;;;;;4.85;4.10;;;22.20;26.90;;;;;;5031592;28;20390;-76
2022/08/09 08:32:26;;;;;;;10.33;3.90;;;22.30;26.30;;;;;;5031295;28;20403;-76
2022/08/09 08:34:53;;;;;;;8.27;4.40;;;22.30;26.20;;;;;;5031912;28;20447;-75
2022/08/09 08:37:19;;;;;;;7.47;4.50;;;22.50;25.70;;;;;;5033725;28;20386;-75
2022/08/09 08:39:45;;;;;;;8.30;4.60;;;22.40;24.70;;;;;;5034318;28;20875;-75
2022/08/09 08:42:11;;;;;;;6.40;4.25;;;22.30;25.00;;;;;;5033050;28;20395;-75
2022/08/09 08:44:37;;;;;;;7.90;4.60;;;22.30;25.80;;;;;;5031592;28;20387;-75
2022/08/09 08:47:04;;;;;;;11.55;4.35;;;22.50;24.30;;;;;;5033203;28;20390;-75
2022/08/09 08:49:31;;;;;;;5.73;3.80;;;22.50;23.50;;;;;;5033088;28;20394;-76
2022/08/09 08:51:57;;;;;;;6.13;4.30;;;22.60;23.50;;;;;;5031363;28;20449;-76
2022/08/09 08:54:23;;;;;;;7.32;4.10;;;22.60;23.60;;;;;;5030403;28;20998;-75
2022/08/09 08:56:49;;;;;;;9.70;4.50;;;22.60;23.50;;;;;;5031471;28;20470;-76
2022/08/09 08:59:14;;;;;;;8.90;4.27;;;22.80;22.70;;;;;;5031978;28;20740;-76
2022/08/09 09:01:44;;;;;;;6.13;4.40;;;22.80;22.50;;;;;;5031652;28;20383;-75
2022/08/09 09:04:12;;;;;;;10.13;4.30;;;22.90;22.40;;;;;;5031446;28;20387;-76
2022/08/09 09:06:40;;;;;;;5.90;3.97;;;23.10;22.00;;;;;;5031555;28;20463;-75
2022/08/09 09:09:07;;;;;;;9.30;4.10;;;23.30;22.30;;;;;;5031923;28;20409;-76
2022/08/09 09:11:36;;;;;;;7.13;3.83;;;23.40;20.80;;;;;;5031649;28;20375;-75
2022/08/09 09:14:15;;;;;;;5.75;3.80;;;23.60;19.70;;;;;;5031776;28;20792;-76
2022/08/09 09:16:41;;;;;;;8.00;4.20;;;23.60;20.00;;;;;;5031229;28;20427;-76
2022/08/09 09:19:08;;;;;;;10.63;3.43;;;23.70;19.40;;;;;;5031147;28;20421;-76
2022/08/09 09:21:34;;;;;;;10.00;4.30;;;23.80;19.20;;;;;;5030496;28;20469;-75
2022/08/09 09:24:04;;;;;;;6.93;3.70;;;23.90;19.40;;;;;;5032763;28;20383;-75
2022/08/09 09:26:31;;;;;;;8.20;3.95;;;23.90;19.30;;;;;;5031624;28;20410;-75
2022/08/09 09:28:56;;;;;;;8.35;4.20;;;24.10;19.00;;;;;;5031550;28;20395;-76
2022/08/09 09:31:23;;;;;;;9.60;3.90;;;24.20;18.40;;;;;;5031761;28;20383;-75
2022/08/09 09:33:49;;;;;;;11.25;4.40;;;24.20;17.70;;;;;;5032578;28;20494;-75
2022/08/09 09:36:15;;;;;;;5.82;4.13;;;24.10;18.30;;;;;;5032013;28;20476;-75
2022/08/09 09:38:47;;;;;;;5.13;4.05;;;24.00;18.50;;;;;;5032553;28;20375;-76
2022/08/09 09:41:34;;;;;;;4.13;3.72;;;24.20;18.30;;;;;;5030562;28;20415;-76
2022/08/09 09:44:03;;;;;;;6.13;4.10;;;24.20;17.20;;;;;;5031126;28;20415;-75
2022/08/09 09:46:39;;;;;;;7.28;3.75;;;24.20;17.80;;;;;;5032396;28;20383;-75
2022/08/09 09:49:11;;;;;;;16.85;4.70;;;24.30;16.90;;;;;;5029961;28;20906;-75
2022/08/09 09:51:39;;;;;;;5.05;3.90;;;24.30;17.10;;;;;;5031128;28;20398;-75
2022/08/09 09:54:17;;;;;;;8.02;3.90;;;24.30;17.50;;;;;;5031097;28;20387;-75
2022/08/09 09:56:45;;;;;;;7.85;4.10;;;24.50;17.10;;;;;;5031995;28;20380;-76
2022/08/09 09:59:18;;;;;;;6.85;4.03;;;24.50;17.00;;;;;;5033712;28;20383;-76
2022/08/09 10:01:44;;;;;;;15.18;4.50;;;24.60;16.70;;;;;;5032174;28;20441;-75
2022/08/09 10:04:15;;;;;;;5.22;4.15;;;24.80;16.60;;;;;;5032902;28;20387;-75
2022/08/09 10:06:43;;;;;;;9.57;4.10;;;24.70;16.30;;;;;;5033622;28;20507;-75
2022/08/09 10:09:11;;;;;;;8.55;4.60;;;24.70;16.40;;;;;;5032452;28;20379;-75
2022/08/09 10:11:37;;;;;;;7.82;4.22;;;24.80;16.20;;;;;;5034190;28;20394;-76
2022/08/09 10:14:03;;;;;;;7.07;3.70;;;24.80;16.30;;;;;;5033906;28;20383;-75
2022/08/09 10:16:33;;;;;;;6.87;4.30;;;24.90;15.60;;;;;;5035561;28;20434;-76
2022/08/09 10:19:02;;;;;;;7.82;4.07;;;25.00;16.10;;;;;;5036075;28;20391;-75
2022/08/09 10:21:28;;;;;;;4.40;4.00;;;24.90;15.70;;;;;;5034938;28;20418;-74
2022/08/09 10:23:55;;;;;;;5.90;4.10;;;24.80;15.20;;;;;;5034128;28;20383;-75
2022/08/09 10:26:22;;;;;;;8.07;4.55;;;24.80;15.80;;;;;;5034545;28;20395;-75
2022/08/09 10:28:48;;;;;;;8.63;4.15;;;24.70;15.40;;;;;;5034133;28;20762;-75
2022/08/09 10:31:15;;;;;;;5.15;3.70;;;24.80;15.60;;;;;;5041038;28;20412;-77
2022/08/09 10:33:41;;;;;;;7.28;3.80;;;24.60;15.40;;;;;;5048456;28;21052;-76
2022/08/09 10:36:09;;;;;;;15.63;3.80;;;24.70;15.50;;;;;;5052141;28;20389;-75
2022/08/09 10:38:36;;;;;;;7.80;4.53;;;24.90;15.40;;;;;;5054258;28;20421;-76
2022/08/09 10:41:03;;;;;;;8.32;4.32;;;24.90;15.40;;;;;;5053657;28;20421;-76
2022/08/09 10:43:31;;;;;;;10.20;4.32;;;24.80;15.10;;;;;;5068716;28;20381;-80
2022/08/09 10:46:12;;;;;;;6.38;4.10;;;24.90;15.20;;;;;;5071780;28;20369;-79
2022/08/09 10:48:54;;;;;;;8.67;4.07;;;25.10;15.50;;;;;;5072381;28;20394;-77
2022/08/09 10:51:30;;;;;;;6.72;4.10;;;25.20;15.20;;;;;;5049423;28;20472;-77
2022/08/09 10:54:01;;;;;;;7.20;3.85;;;25.20;14.60;;;;;;5072137;28;20407;-77
2022/08/09 10:56:32;;;;;;;7.70;4.30;;;25.20;14.20;;;;;;5054037;28;20393;-77
2022/08/09 10:58:59;;;;;;;9.35;4.78;;;25.20;14.10;;;;;;5045840;28;20892;-77
2022/08/09 11:01:31;;;;;;;9.50;4.40;;;25.30;15.00;;;;;;5034632;28;20386;-79
2022/08/09 11:04:26;;;;;;;4.63;3.97;;;25.50;14.10;;;;;;5048675;28;20405;-79
2022/08/09 11:06:57;;;;;;;9.00;4.50;;;25.60;12.80;;;;;;5063308;28;20467;-78
2022/08/09 11:09:38;;;;;;;6.00;4.22;;;25.60;13.40;;;;;;5063923;28;20415;-77
2022/08/09 11:12:14;;;;;;;7.68;4.40;;;25.30;13.80;;;;;;5065932;28;20405;-78
2022/08/09 11:14:43;;;;;;;7.47;4.32;;;25.30;13.90;;;;;;5060207;28;20400;-79
2022/08/09 11:17:15;;;;;;;5.40;4.00;;;25.40;13.50;;;;;;5057630;28;20402;-77
2022/08/09 11:19:53;;;;;;;6.07;4.20;;;25.40;12.70;;;;;;5045257;28;20722;-77
2022/08/09 11:22:42;;;;;;;7.38;4.32;;;25.50;12.50;;;;;;5057125;28;20473;-77
2022/08/09 11:25:32;;;;;;;9.23;4.90;;;25.70;12.30;;;;;;5064434;28;20399;-77
2022/08/09 11:27:58;;;;;;;7.07;3.90;;;25.70;12.70;;;;;;5053542;28;20408;-77
2022/08/09 11:30:26;;;;;;;6.30;4.30;;;25.80;13.00;;;;;;5067317;28;20468;-78
2022/08/09 11:33:10;;;;;;;6.70;4.13;;;25.90;12.70;;;;;;5066035;28;20425;-76
2022/08/09 11:35:53;;;;;;;7.22;4.65;;;26.20;12.60;;;;;;5055041;28;20391;-77
2022/08/09 11:38:20;;;;;;;8.63;4.37;;;26.40;12.30;;;;;;5057726;28;20373;-77
2022/08/09 11:40:46;;;;;;;6.83;3.83;;;26.60;11.10;;;;;;5064051;28;20389;-78
2022/08/09 11:43:34;;;;;;;7.10;3.90;;;26.50;11.20;;;;;;5055824;28;20495;-77
2022/08/09 11:46:01;;;;;;;6.85;4.00;;;26.40;11.50;;;;;;5055315;28;20408;-77
2022/08/09 11:48:31;;;;;;;9.20;4.10;;;26.50;10.20;;;;;;5078260;28;20390;-78
2022/08/09 11:51:00;;;;;;;9.03;4.23;;;26.40;10.40;;;;;;5072771;28;20386;-77
2022/08/09 11:53:28;;;;;;;6.80;4.10;;;26.40;10.50;;;;;;5068596;28;20874;-77
2022/08/09 11:55:56;;;;;;;5.93;4.50;;;26.50;10.10;;;;;;5066592;28;20773;-80
2022/08/09 11:58:22;;;;;;;8.70;4.13;;;26.60;9.90;;;;;;5068977;28;20516;-78
2022/08/09 12:00:49;;;;;;;6.88;4.18;;;26.80;9.60;;;;;;5055813;28;20388;-76
2022/08/09 12:03:16;;;;;;;4.35;3.63;;;26.70;9.00;;;;;;5046076;28;20414;-77
2022/08/09 12:05:43;;;;;;;3.92;3.53;;;26.70;8.50;;;;;;5051197;28;20770;-77
2022/08/09 12:08:10;;;;;;;5.60;3.72;;;26.70;9.10;;;;;;5061160;28;20381;-77
2022/08/09 12:10:42;;;;;;;7.15;4.00;;;27.00;10.40;;;;;;5057090;28;20892;-75
2022/08/09 12:13:08;;;;;;;7.90;4.22;;;27.10;9.20;;;;;;5057144;28;20406;-78
2022/08/09 12:15:34;;;;;;;6.53;3.70;;;27.30;10.10;;;;;;5055527;28;20402;-76
2022/08/09 12:18:00;;;;;;;5.80;3.80;;;27.30;8.90;;;;;;5054748;28;20445;-77
2022/08/09 12:20:26;;;;;;;9.48;3.88;;;27.30;9.10;;;;;;5055598;28;20381;-76
2022/08/09 12:23:02;;;;;;;9.30;4.10;;;27.60;8.70;;;;;;5054432;28;20760;-76
2022/08/09 12:25:31;;;;;;;12.27;4.00;;;27.60;8.30;;;;;;5056334;28;20384;-77
2022/08/09 12:28:17;;;;;;;7.53;4.15;;;27.50;9.10;;;;;;5055854;28;20907;-78
2022/08/09 12:30:43;;;;;;;4.80;3.90;;;27.60;8.40;;;;;;5034306;28;20438;-81
2022/08/09 12:33:11;;;;;;;6.57;3.92;;;27.70;8.70;;;;;;5035141;28;20904;-77
2022/08/09 12:35:37;;;;;;;6.47;4.10;;;27.80;8.40;;;;;;5032733;28;20378;-77
2022/08/09 12:38:16;;;;;;;5.70;3.80;;;27.50;8.20;;;;;;5032878;28;20482;-76
2022/08/09 12:40:46;;;;;;;4.25;3.72;;;27.40;8.20;;;;;;5032011;28;20379;-77
2022/08/09 12:43:14;;;;;;;5.80;4.03;;;27.10;8.20;;;;;;5031628;28;20387;-77
2022/08/09 12:45:40;;;;;;;6.05;3.92;;;27.20;8.70;;;;;;5031849;28;20441;-77
2022/08/09 12:48:08;;;;;;;4.37;3.30;;;27.40;7.90;;;;;;5032582;28;20405;-77
2022/08/09 12:50:35;;;;;;;4.10;3.70;;;27.50;7.70;;;;;;5033171;28;20812;-77